createdAt,value
2023-03-05T00:00:23.391Z,41.60
2023-03-05T00:03:26.612Z,37.83
2023-03-05T00:06:32.973Z,50.72
2023-03-05T00:09:36.165Z,39.78
2023-03-05T00:12:39.342Z,47.63
2023-03-05T00:15:43.108Z,44.55
2023-03-05T00:18:46.360Z,43.97
2023-03-05T00:21:50.881Z,49.42
2023-03-05T00:24:54.211Z,45.95
2023-03-05T00:27:57.390Z,47.40
2023-03-05T00:31:01.869Z,42.65
2023-03-05T00:34:08.032Z,44.28
2023-03-05T00:37:12.599Z,54.28
2023-03-05T00:40:16.096Z,44.78
2023-03-05T00:43:19.348Z,45.08
2023-03-05T00:46:23.082Z,49.05
2023-03-05T00:49:26.401Z,48.03
2023-03-05T00:52:30.946Z,50.28
2023-03-05T00:55:36.048Z,45.03
2023-03-05T00:58:39.802Z,49.22
2023-03-05T01:01:43.078Z,48.60
2023-03-05T01:04:49.564Z,54.47
2023-03-05T01:07:55.720Z,54.03
2023-03-05T01:10:59.361Z,49.92
2023-03-05T01:14:04.577Z,53.28
2023-03-05T01:17:07.720Z,47.63
2023-03-05T01:20:14.410Z,52.03
2023-03-05T01:23:19.208Z,54.65
2023-03-05T01:26:22.413Z,47.58
2023-03-05T01:29:25.664Z,50.15
2023-03-05T01:32:28.824Z,46.88
2023-03-05T01:35:33.888Z,53.50
2023-03-05T01:38:38.375Z,49.13
2023-03-05T01:41:41.502Z,54.35
2023-03-05T01:45:01.156Z,52.22
2023-03-05T01:48:04.748Z,48.45
2023-03-05T01:51:08.577Z,49.10
2023-03-05T01:54:16.373Z,55.72
2023-03-05T01:57:24.021Z,49.50
2023-03-05T02:00:30.382Z,58.10
2023-03-05T02:03:35.224Z,50.17
2023-03-05T02:06:39.632Z,47.38
2023-03-05T02:09:44.211Z,51.63
2023-03-05T02:12:48.713Z,55.22
2023-03-05T02:15:53.730Z,51.60
2023-03-05T02:18:58.102Z,53.13
2023-03-05T02:22:02.770Z,54.25
2023-03-05T02:25:15.323Z,48.50
2023-03-05T02:28:24.015Z,49.80
2023-03-05T02:34:30.858Z,50.05
2023-03-05T02:37:35.508Z,50.45
2023-03-05T02:40:38.956Z,54.13
2023-03-05T02:43:42.317Z,50.97
2023-03-05T02:46:45.493Z,48.92
2023-03-05T02:49:48.767Z,55.22
2023-03-05T02:52:53.402Z,50.90
2023-03-05T02:55:57.627Z,52.70
2023-03-05T02:59:00.923Z,55.83
2023-03-05T03:02:04.118Z,52.45
2023-03-05T03:05:08.290Z,50.15
2023-03-05T03:08:12.773Z,48.60
2023-03-05T03:11:15.927Z,51.80
2023-03-05T03:14:19.209Z,58.92
2023-03-05T03:17:22.344Z,56.20
2023-03-05T03:20:26.617Z,48.90
2023-03-05T03:23:31.690Z,45.80
2023-03-05T03:26:34.803Z,47.53
2023-03-05T03:29:38.801Z,45.45
2023-03-05T03:32:41.997Z,45.38
2023-03-05T03:35:46.307Z,50.83
2023-03-05T03:38:51.129Z,45.20
2023-03-05T03:41:54.882Z,53.90
2023-03-05T03:44:58.156Z,50.53
2023-03-05T03:48:01.350Z,43.40
2023-03-05T03:51:08.816Z,43.75
2023-03-05T03:54:14.333Z,44.35
2023-03-05T03:57:17.520Z,47.83
2023-03-05T04:00:21.268Z,58.35
2023-03-05T04:03:24.552Z,54.75
2023-03-05T04:06:28.092Z,48.17
2023-03-05T04:09:32.713Z,49.50
2023-03-05T04:12:35.889Z,49.03
2023-03-05T04:15:39.121Z,51.35
2023-03-05T04:18:42.938Z,48.17
2023-03-05T04:21:46.183Z,50.70
2023-03-05T04:24:50.639Z,50.80
2023-03-05T04:27:53.876Z,56.08
2023-03-05T04:34:24.972Z,47.83
2023-03-05T04:37:28.323Z,52.65
2023-03-05T04:40:31.568Z,50.38
2023-03-05T04:43:34.691Z,50.72
2023-03-05T04:46:37.888Z,52.83
2023-03-05T04:49:42.612Z,55.47
2023-03-05T04:52:47.000Z,53.63
2023-03-05T04:55:54.072Z,56.47
2023-03-05T04:58:57.253Z,56.65
2023-03-05T05:02:00.751Z,58.00
2023-03-05T05:05:05.621Z,54.00
2023-03-05T05:08:08.841Z,54.33
2023-03-05T05:11:15.144Z,56.67
2023-03-05T05:14:18.895Z,51.85
2023-03-05T05:17:22.374Z,53.45
2023-03-05T05:20:29.871Z,48.95
2023-03-05T05:23:33.324Z,50.97
2023-03-05T05:26:36.442Z,50.50
2023-03-05T05:29:39.650Z,59.17
2023-03-05T05:32:42.920Z,55.85
2023-03-05T05:35:47.594Z,53.33
2023-03-05T05:38:51.549Z,58.90
2023-03-05T05:41:54.872Z,58.35
2023-03-05T05:44:58.274Z,58.17
2023-03-05T05:48:01.424Z,60.88
2023-03-05T05:51:08.732Z,52.60
2023-03-05T05:54:14.056Z,51.40
2023-03-05T05:57:17.222Z,60.58
2023-03-05T06:00:20.958Z,52.08
2023-03-05T06:03:24.227Z,49.58
2023-03-05T06:06:30.128Z,53.55
2023-03-05T06:09:33.617Z,53.75
2023-03-05T06:12:36.991Z,55.97
2023-03-05T06:15:40.218Z,59.42
2023-03-05T06:18:43.653Z,51.88
2023-03-05T06:21:48.167Z,53.90
2023-03-05T06:24:51.308Z,49.72
2023-03-05T06:27:54.657Z,48.92
2023-03-05T06:31:02.146Z,58.45
2023-03-05T06:34:05.785Z,49.80
2023-03-05T06:37:10.290Z,56.38
2023-03-05T06:40:14.695Z,48.47
2023-03-05T06:43:17.882Z,59.85
2023-03-05T06:46:22.994Z,63.10
2023-03-05T06:49:26.190Z,56.97
2023-03-05T06:52:30.737Z,62.47
2023-03-05T06:55:39.728Z,56.10
2023-03-05T06:58:42.985Z,48.80
2023-03-05T07:01:46.413Z,50.78
2023-03-05T07:04:49.611Z,52.15
2023-03-05T07:07:54.300Z,59.22
2023-03-05T07:10:57.666Z,54.80
2023-03-05T07:14:01.409Z,53.63
2023-03-05T07:17:04.674Z,54.95
2023-03-05T07:20:09.611Z,51.75
2023-03-05T07:23:14.475Z,47.75
2023-03-05T07:26:17.861Z,51.55
2023-03-05T07:29:21.031Z,55.70
2023-03-05T07:32:24.239Z,53.47
2023-03-05T07:35:27.914Z,56.08
2023-03-05T07:38:32.614Z,51.83
2023-03-05T07:41:35.858Z,54.72
2023-03-05T07:44:39.856Z,46.95
2023-03-05T07:47:42.979Z,47.35
2023-03-05T07:50:46.121Z,48.85
2023-03-05T07:53:52.200Z,44.85
2023-03-05T07:56:55.697Z,42.22
2023-03-05T07:59:58.949Z,43.15
2023-03-05T08:03:02.175Z,40.00
2023-03-05T08:06:06.572Z,46.47
2023-03-05T08:09:11.099Z,34.97
2023-03-05T08:12:14.266Z,41.25
2023-03-05T08:15:17.998Z,31.00
2023-03-05T08:18:21.176Z,42.85
2023-03-05T08:21:29.336Z,31.50
2023-03-05T08:24:33.992Z,35.28
2023-03-05T08:27:39.927Z,32.53
2023-03-05T08:30:43.086Z,30.75
2023-03-05T08:33:46.435Z,26.98
2023-03-05T08:36:50.139Z,28.48
2023-03-05T08:39:56.184Z,29.10
2023-03-05T08:43:00.158Z,23.50
2023-03-05T08:46:04.665Z,30.80
2023-03-05T08:49:08.324Z,24.02
2023-03-05T08:52:11.944Z,21.20
2023-03-05T08:55:16.935Z,18.40
2023-03-05T08:58:20.090Z,20.23
2023-03-05T09:01:23.909Z,18.30
2023-03-05T09:04:27.237Z,22.90
2023-03-05T09:07:30.428Z,25.55
2023-03-05T09:10:35.435Z,23.70
2023-03-05T09:13:38.657Z,18.80
2023-03-05T09:16:41.976Z,17.02
2023-03-05T09:19:45.189Z,13.75
2023-03-05T09:22:48.374Z,19.40
2023-03-05T09:25:53.013Z,18.30
2023-03-05T09:28:56.387Z,11.88
2023-03-05T09:31:59.621Z,17.80
2023-03-05T09:35:02.879Z,11.18
2023-03-05T09:38:06.117Z,11.73
2023-03-05T09:41:18.681Z,8.60
2023-03-05T09:44:29.320Z,14.88
2023-03-05T09:47:46.325Z,6.97
2023-03-05T09:50:53.390Z,12.30
2023-03-05T09:54:03.191Z,10.07
2023-03-05T09:57:17.349Z,9.85
2023-03-05T10:00:30.913Z,14.85
2023-03-05T10:03:48.461Z,9.35
2023-03-05T10:06:56.195Z,5.30
2023-03-05T10:10:01.189Z,7.40
2023-03-05T10:13:13.045Z,9.43
2023-03-05T10:16:39.948Z,10.65
2023-03-05T10:20:06.144Z,10.02
2023-03-05T10:23:26.789Z,7.45
2023-03-05T10:26:58.518Z,11.02
2023-03-05T10:34:46.112Z,10.32
2023-03-05T10:38:08.948Z,8.60
2023-03-05T10:41:22.254Z,7.82
2023-03-05T10:44:34.482Z,9.00
2023-03-05T10:47:45.736Z,9.32
2023-03-05T10:50:55.041Z,9.25
2023-03-05T10:54:00.109Z,9.68
2023-03-05T10:57:14.882Z,7.50
2023-03-05T11:00:20.850Z,11.32
2023-03-05T11:03:24.340Z,11.65
2023-03-05T11:06:34.965Z,8.27
2023-03-05T11:09:38.255Z,12.68
2023-03-05T11:12:41.462Z,10.30
2023-03-05T11:15:44.720Z,11.32
2023-03-05T11:18:48.045Z,7.72
2023-03-05T11:22:14.539Z,5.30
2023-03-05T11:25:21.357Z,9.85
2023-03-05T11:28:33.038Z,7.60
2023-03-05T11:31:36.997Z,4.75
2023-03-05T11:34:43.268Z,3.03
2023-03-05T11:38:01.328Z,3.72
2023-03-05T11:41:04.612Z,6.63
2023-03-05T11:44:13.820Z,5.03
2023-03-05T11:47:27.639Z,7.90
2023-03-05T11:50:32.572Z,12.32
2023-03-05T11:53:38.046Z,7.40
2023-03-05T11:56:45.130Z,4.85
2023-03-05T11:59:49.043Z,4.05
2023-03-05T12:02:55.701Z,4.13
2023-03-05T12:06:03.673Z,5.22
2023-03-05T12:09:13.293Z,4.88
2023-03-05T12:12:30.827Z,6.57
2023-03-05T12:15:46.760Z,5.13
2023-03-05T12:18:58.686Z,5.03
2023-03-05T12:22:03.513Z,6.20
2023-03-05T12:25:28.338Z,3.97
2023-03-05T12:28:54.836Z,4.88
2023-03-05T12:31:58.863Z,4.40
2023-03-05T12:35:04.309Z,4.53
2023-03-05T12:38:32.058Z,3.67
2023-03-05T12:41:37.677Z,4.78
2023-03-05T12:44:40.848Z,4.68
2023-03-05T12:47:45.120Z,3.17
2023-03-05T12:50:49.644Z,3.33
2023-03-05T12:53:52.972Z,3.70
2023-03-05T12:56:58.913Z,5.78
2023-03-05T13:00:08.062Z,3.92
2023-03-05T13:03:17.186Z,4.68
2023-03-05T13:06:29.774Z,5.70
2023-03-05T13:09:36.345Z,6.88
2023-03-05T13:12:41.071Z,4.78
2023-03-05T13:15:46.905Z,3.75
2023-03-05T13:18:51.542Z,4.00
2023-03-05T13:22:11.713Z,6.22
2023-03-05T13:25:20.377Z,6.05
2023-03-05T13:28:25.184Z,3.15
2023-03-05T13:31:28.836Z,4.03
2023-03-05T13:34:46.207Z,4.18
2023-03-05T13:37:51.065Z,6.28
2023-03-05T13:41:19.384Z,13.98
2023-03-05T13:44:29.472Z,17.33
2023-03-05T13:47:34.599Z,8.30
2023-03-05T13:50:40.779Z,9.77
2023-03-05T13:53:44.728Z,8.05
2023-03-05T13:56:53.655Z,7.07
2023-03-05T13:59:58.136Z,7.03
2023-03-05T14:03:09.772Z,9.23
2023-03-05T14:06:19.529Z,7.45
2023-03-05T14:09:26.200Z,10.27
2023-03-05T14:12:34.465Z,6.40
2023-03-05T14:15:39.200Z,8.32
2023-03-05T14:18:55.123Z,12.65
2023-03-05T14:21:58.443Z,5.78
2023-03-05T14:25:02.019Z,7.85
2023-03-05T14:28:07.598Z,9.30
2023-03-05T14:31:17.720Z,7.53
2023-03-05T14:34:25.223Z,6.40
2023-03-05T14:37:36.518Z,7.38
2023-03-05T14:40:39.682Z,8.55
2023-03-05T14:43:42.920Z,5.88
2023-03-05T14:46:50.923Z,5.63
2023-03-05T14:53:00.234Z,9.93
2023-03-05T14:56:03.709Z,7.50
2023-03-05T14:59:07.302Z,5.07
2023-03-05T15:02:16.439Z,7.38
2023-03-05T15:05:20.874Z,7.47
2023-03-05T15:08:26.872Z,8.77
2023-03-05T15:16:20.253Z,12.55
2023-03-05T15:19:28.006Z,9.85
2023-03-05T15:22:31.276Z,11.60
2023-03-05T15:25:35.325Z,14.00
2023-03-05T15:28:40.017Z,11.63
2023-03-05T15:31:43.131Z,9.77
2023-03-05T15:34:47.801Z,9.48
2023-03-05T15:37:51.214Z,9.30
2023-03-05T15:40:54.710Z,11.77
2023-03-05T15:43:57.828Z,11.70
2023-03-05T15:47:00.925Z,10.85
2023-03-05T15:50:06.662Z,21.77
2023-03-05T15:53:10.023Z,13.55
2023-03-05T15:56:17.414Z,13.10
2023-03-05T15:59:20.865Z,11.60
2023-03-05T16:02:25.066Z,13.38
2023-03-05T16:05:29.810Z,16.80
2023-03-05T16:08:36.113Z,19.60
2023-03-05T16:11:47.737Z,14.70
2023-03-05T16:14:52.125Z,14.23
2023-03-05T16:17:56.930Z,18.30
2023-03-05T16:21:02.188Z,13.85
2023-03-05T16:24:05.726Z,13.18
2023-03-05T16:27:12.376Z,17.33
2023-03-05T16:34:24.645Z,55.47
2023-03-05T16:37:27.931Z,101.72
2023-03-05T16:40:56.633Z,32.00
2023-03-05T16:43:57.889Z,13.02
2023-03-05T16:47:01.144Z,26.15
2023-03-05T16:50:07.507Z,15.25
2023-03-05T16:53:10.813Z,15.80
2023-03-05T16:56:14.130Z,15.48
2023-03-05T16:59:17.685Z,16.73
2023-03-05T17:02:20.978Z,48.10
2023-03-05T17:05:29.783Z,34.90
2023-03-05T17:08:33.172Z,29.33
2023-03-05T17:11:36.428Z,18.95
2023-03-05T17:14:39.921Z,20.67
2023-03-05T17:17:43.068Z,17.17
2023-03-05T17:20:47.600Z,16.05
2023-03-05T17:23:53.487Z,15.30
2023-03-05T17:26:56.711Z,23.65
2023-03-05T17:29:59.922Z,28.58
2023-03-05T17:33:04.109Z,27.13
2023-03-05T17:36:13.914Z,19.00
2023-03-05T17:39:18.832Z,23.17
2023-03-05T17:42:22.509Z,18.65
2023-03-05T17:45:27.787Z,18.05
2023-03-05T17:48:30.983Z,19.75
2023-03-05T18:03:09.775Z,21.38
2023-03-05T18:06:33.290Z,20.40
2023-03-05T18:09:37.039Z,26.58
2023-03-05T18:12:40.305Z,23.67
2023-03-05T18:15:47.494Z,18.60
2023-03-05T18:18:52.151Z,23.17
2023-03-05T18:21:55.458Z,28.77
2023-03-05T18:25:03.669Z,18.85
2023-03-05T18:28:09.063Z,22.27
2023-03-05T18:31:12.291Z,18.83
2023-03-05T18:34:17.557Z,27.08
2023-03-05T18:37:20.794Z,29.35
2023-03-05T18:40:27.697Z,20.35
2023-03-05T18:43:31.277Z,18.45
2023-03-05T18:46:34.419Z,22.25
2023-03-05T18:49:38.916Z,22.38
2023-03-05T18:52:42.424Z,22.15
2023-03-05T18:55:45.792Z,20.75
2023-03-05T18:58:49.196Z,19.45
2023-03-05T19:01:52.351Z,22.27
2023-03-05T19:04:59.290Z,20.02
2023-03-05T19:08:04.700Z,18.02
2023-03-05T19:11:17.410Z,20.00
2023-03-05T19:14:20.592Z,23.20
2023-03-05T19:17:23.739Z,20.55
2023-03-05T19:20:28.392Z,20.23
2023-03-05T19:23:31.614Z,21.73
2023-03-05T19:26:35.199Z,20.60
2023-03-05T19:29:40.182Z,23.80
2023-03-05T19:32:47.067Z,21.73
2023-03-05T19:35:51.877Z,24.70
2023-03-05T19:38:55.102Z,27.67
2023-03-05T19:41:58.856Z,22.30
2023-03-05T19:45:02.301Z,24.98
2023-03-05T19:48:06.057Z,40.42
2023-03-05T19:51:13.192Z,29.40
2023-03-05T19:54:18.234Z,29.70
2023-03-05T19:57:21.503Z,24.33
2023-03-05T20:00:26.246Z,28.70
2023-03-05T20:03:29.483Z,29.48
2023-03-05T20:06:34.696Z,26.52
2023-03-05T20:09:38.104Z,25.23
2023-03-05T20:12:41.382Z,29.70
2023-03-05T20:15:44.539Z,25.88
2023-03-05T20:18:52.516Z,23.10
2023-03-05T20:21:56.994Z,26.35
2023-03-05T20:25:00.273Z,23.50
2023-03-05T20:28:03.617Z,27.48
2023-03-05T20:31:06.767Z,23.35
2023-03-05T20:34:12.346Z,26.88
2023-03-05T20:37:16.882Z,26.40
2023-03-05T20:40:20.317Z,23.73
2023-03-05T20:43:24.456Z,24.67
2023-03-05T20:46:29.819Z,29.20
2023-03-05T20:49:32.972Z,32.30
2023-03-05T20:52:37.651Z,22.70
2023-03-05T20:55:40.936Z,29.17
2023-03-05T20:58:44.342Z,26.52
2023-03-05T21:01:47.448Z,26.50
2023-03-05T21:04:50.702Z,26.27
2023-03-05T21:07:55.810Z,28.98
2023-03-05T21:10:59.272Z,25.67
2023-03-05T21:14:02.670Z,24.98
2023-03-05T21:17:06.149Z,25.00
2023-03-05T21:20:14.181Z,27.92
2023-03-05T21:23:18.757Z,25.30
2023-03-05T21:26:22.462Z,32.28
2023-03-05T21:29:25.772Z,30.27
2023-03-05T21:32:28.904Z,35.20
2023-03-05T21:35:33.519Z,23.15
2023-03-05T21:38:38.052Z,27.20
2023-03-05T21:41:41.155Z,29.23
2023-03-05T21:44:44.375Z,35.70
2023-03-05T21:47:49.180Z,26.13
2023-03-05T21:50:52.659Z,24.67
2023-03-05T21:53:57.139Z,23.98
2023-03-05T21:57:00.444Z,30.45
2023-03-05T22:00:05.826Z,29.92
2023-03-05T22:03:15.253Z,28.92
2023-03-05T22:06:19.620Z,31.73
2023-03-05T22:09:24.125Z,36.67
2023-03-05T22:12:43.012Z,22.52
2023-03-05T22:18:49.954Z,31.30
2023-03-05T22:21:53.058Z,32.88
2023-03-05T22:24:57.665Z,37.38
2023-03-05T22:28:00.873Z,32.55
2023-03-05T22:34:24.466Z,29.65
2023-03-05T22:37:29.377Z,35.35
2023-03-05T22:40:32.738Z,28.48
2023-03-05T22:43:35.903Z,28.65
2023-03-05T22:46:39.288Z,30.98
2023-03-05T22:49:46.459Z,21.80
2023-03-05T22:52:50.026Z,22.02
2023-03-05T22:55:53.994Z,27.65
2023-03-05T22:58:57.908Z,25.25
2023-03-05T23:02:01.056Z,28.20
2023-03-05T23:05:07.208Z,27.20
2023-03-05T23:08:10.397Z,24.88
2023-03-05T23:11:14.426Z,24.23
2023-03-05T23:14:17.626Z,31.63
2023-03-05T23:17:20.905Z,30.55
2023-03-05T23:20:27.092Z,28.92
2023-03-05T23:23:30.228Z,29.42
2023-03-05T23:26:33.428Z,28.90
2023-03-05T23:29:53.143Z,26.65
2023-03-05T23:32:58.495Z,25.45
2023-03-05T23:36:03.142Z,27.55
2023-03-05T23:39:06.284Z,30.17
2023-03-05T23:42:10.382Z,28.50
2023-03-05T23:45:15.416Z,28.42
2023-03-05T23:48:18.819Z,32.08
2023-03-05T23:51:23.326Z,28.60
2023-03-05T23:54:26.522Z,30.75
2023-03-05T23:57:29.633Z,29.10
